Terminal Aerodrome Forecast
Issued by NWS

Current Version | Previous Version | Graphics & Text | Print | Product List | Glossary On
Versions: 1 2 3 4 5 6 7 8 9 10 11 12 13 14 15 16 17 18 19 20 21 22 23 24
000
FTUS41 KILN 011300 AAB
TAFLUK
TAF AMD
KLUK 011308Z 0113/0212 27004KT 1/4SM FG BKN003
      TEMPO 0113/0114 1 1/2SM BR SCT005
     FM011400 33004KT 3SM BR SCT040 BKN250
     FM011500 32007KT P6SM SCT040 BKN250
     FM020000 02004KT P6SM SCT050 SCT120 BKN250
     FM020600 09005KT P6SM BKN050=

USA.gov is the U.S. government's official web portal to all federal, state and local government web resources and services.